Austinville, Virginia
Current Conditions -  °F | °C
As of 7:55 PM on Saturday 22 Nov 2014 (Local Time) from KHLX Reporting Station
Clear Clear  
Wind Chill: 32°   Ceiling: Unl
Heat Index: 37°   Visibility: 10mi
Dew Point: 18°   Wind: 7mph
Humidity: 45%   Direction: 200°SSW
Pressure: 30.29"   Gusts: NA
Location:  36.85°N, 80.91°W
Report Text: KHLX 230055Z AUTO 20006KT 10SM CLR 03/M08 A3029 RMK AO2 T00281080
Loading
Personal Weather Stations






























Interactive Weather Map New forecast layout! Learn more

10-Day Weather Forecast

Advertisements
Track Severe Weather on mobile